Rutland Town, Vermont
Current Conditions -  °F | °C
As of 1:15 PM on Wednesday 28 Jan 2015 (Local Time) from K6B0 Reporting Station
Clear Clear  
Wind Chill:   Ceiling: Unl
Heat Index: 17°   Visibility: 10mi
Dew Point: -5°   Wind: 13mph
Humidity: 38%   Direction: 360°N
Pressure: 30.11"   Gusts: 18mph
Location:  43.6369°N, 72.9375°W
Report Text: K6B0 281815Z AUTO 36011G16KT 330V030 10SM CLR M08/M21 A3011 RMK AO2 T10851207
Loading
Personal Weather Stations






























Interactive Weather Map New forecast layout! Learn more

10-Day Weather Forecast

Advertisements
Track Severe Weather on mobile